Abbey Dell, Indiana
Current Conditions -  °F | °C
As of 12:15 PM on Sunday 23 Nov 2014 (Local Time) from KDCY Reporting Station
Overcast Overcast  
Wind Chill: 52°   Ceiling: 2100
Heat Index: 52°   Visibility: 10mi
Dew Point: 52°   Wind: 8mph
Humidity: 100%   Direction: 140°SE
Pressure: 29.7"   Gusts: NA
Location:  38.6165°N, 86.6265°W
Report Text: KDCY 231715Z AUTO 14007KT 10SM OVC021 11/11 A2970 RMK AO2 T01130113
Loading
Personal Weather Stations






























Interactive Weather Map New forecast layout! Learn more

10-Day Weather Forecast

Advertisements
Track Severe Weather on mobile